createdAt,value
2022-11-12T00:04:04.038Z,85.65
2022-11-12T00:16:04.462Z,84.97
2022-11-12T00:28:04.913Z,85.70
2022-11-12T00:40:05.373Z,85.41
2022-11-12T00:52:05.830Z,85.47
2022-11-12T01:04:06.276Z,84.92
2022-11-12T01:16:06.716Z,85.40
2022-11-12T01:28:07.162Z,85.55
2022-11-12T01:40:07.677Z,85.49
2022-11-12T01:52:08.072Z,86.78
2022-11-12T02:04:08.547Z,87.39
2022-11-12T02:16:08.958Z,86.45
2022-11-12T02:28:09.451Z,87.08
2022-11-12T02:40:09.877Z,86.75
2022-11-12T02:52:10.318Z,87.45
2022-11-12T03:04:10.778Z,86.84
2022-11-12T03:16:11.243Z,86.86
2022-11-12T03:28:11.658Z,87.03
2022-11-12T03:40:12.137Z,87.74
2022-11-12T03:52:12.593Z,87.67
2022-11-12T04:04:13.020Z,87.75
2022-11-12T04:16:13.481Z,87.43
2022-11-12T04:28:13.919Z,87.83
2022-11-12T04:40:14.393Z,88.74
2022-11-12T04:52:14.875Z,88.37
2022-11-12T05:04:15.320Z,90.17
2022-11-12T05:16:15.733Z,88.65
2022-11-12T05:28:16.190Z,88.01
2022-11-12T05:40:16.690Z,89.17
2022-11-12T05:52:17.119Z,89.56
2022-11-12T06:04:17.571Z,90.09
2022-11-12T06:16:18.014Z,90.07
2022-11-12T06:28:18.523Z,89.96
2022-11-12T06:40:18.913Z,88.45
2022-11-12T06:52:19.358Z,89.19
2022-11-12T07:04:19.825Z,89.41
2022-11-12T07:16:20.291Z,90.14
2022-11-12T07:28:20.717Z,88.88
2022-11-12T07:40:21.144Z,88.91
2022-11-12T07:52:21.581Z,89.26
2022-11-12T08:04:22.094Z,87.52
2022-11-12T08:16:22.532Z,88.72
2022-11-12T08:28:23.079Z,86.49
2022-11-12T08:40:23.426Z,83.23
2022-11-12T08:52:23.879Z,79.87
2022-11-12T09:04:24.333Z,80.71
2022-11-12T09:16:24.800Z,74.81
2022-11-12T09:28:25.578Z,67.75
2022-11-12T09:40:25.705Z,53.86
2022-11-12T09:52:26.175Z,48.24
2022-11-12T10:04:26.601Z,43.95
2022-11-12T10:16:27.054Z,40.27
2022-11-12T10:28:27.888Z,38.68
2022-11-12T10:40:27.993Z,41.39
2022-11-12T10:52:28.424Z,38.76
2022-11-12T11:04:28.886Z,36.53
2022-11-12T11:16:29.364Z,36.70
2022-11-12T11:28:30.042Z,27.05
2022-11-12T11:40:30.281Z,26.15
2022-11-12T11:52:30.656Z,22.03
2022-11-12T12:04:31.176Z,23.34
2022-11-12T12:16:31.610Z,30.11
2022-11-12T12:28:32.042Z,27.30
2022-11-12T12:40:32.535Z,30.32
2022-11-12T12:52:33.005Z,42.72
2022-11-12T13:04:33.443Z,44.10
2022-11-12T13:16:33.868Z,47.21
2022-11-12T13:28:34.305Z,51.58
2022-11-12T13:40:34.818Z,54.00
2022-11-12T13:52:35.286Z,55.30
2022-11-12T14:04:35.706Z,57.60
2022-11-12T14:16:36.173Z,62.07
2022-11-12T14:28:36.667Z,61.09
2022-11-12T14:40:37.049Z,66.23
2022-11-12T14:52:37.531Z,67.46
2022-11-12T15:04:37.982Z,71.11
2022-11-12T15:16:38.458Z,74.85
2022-11-12T15:28:38.881Z,73.55
2022-11-12T15:40:39.341Z,76.53
2022-11-12T15:52:39.775Z,75.56
2022-11-12T16:04:40.273Z,79.64
2022-11-12T16:16:40.719Z,77.84
2022-11-12T16:28:41.175Z,79.65
2022-11-12T16:40:41.641Z,82.96
2022-11-12T16:52:42.100Z,80.73
2022-11-12T17:04:42.531Z,80.63
2022-11-12T17:16:42.951Z,79.85
2022-11-12T17:28:43.398Z,81.73
2022-11-12T17:40:43.896Z,81.25
2022-11-12T17:52:44.308Z,81.27
2022-11-12T18:04:44.760Z,81.96
2022-11-12T18:16:45.205Z,81.97
2022-11-12T18:28:45.726Z,81.96
2022-11-12T18:40:46.102Z,80.89
2022-11-12T18:52:46.608Z,83.92
2022-11-12T19:04:47.045Z,81.59
2022-11-12T19:16:47.484Z,82.92
2022-11-12T19:28:47.936Z,83.98
2022-11-12T19:40:48.372Z,81.23
2022-11-12T19:52:48.860Z,83.64
2022-11-12T20:04:49.351Z,84.15
2022-11-12T20:16:49.760Z,82.04
2022-11-12T20:28:50.266Z,83.29
2022-11-12T20:40:50.634Z,85.98
2022-11-12T20:52:51.102Z,85.16
2022-11-12T21:04:51.563Z,83.49
2022-11-12T21:16:51.979Z,85.26
2022-11-12T21:28:52.476Z,84.30
2022-11-12T21:40:52.924Z,85.73
2022-11-12T21:52:53.363Z,84.62
2022-11-12T22:04:53.849Z,85.33
2022-11-12T22:16:54.250Z,85.77
2022-11-12T22:28:54.760Z,85.59
2022-11-12T22:40:55.192Z,85.20
2022-11-12T22:52:55.623Z,86.88
2022-11-12T23:04:56.085Z,84.74
2022-11-12T23:16:56.538Z,86.27
2022-11-12T23:28:57.001Z,85.18
2022-11-12T23:40:57.457Z,87.00
2022-11-12T23:52:57.860Z,85.54
